createdAt,value
2018-12-29T00:00:40.566Z,3.72
2018-12-29T00:01:40.540Z,3.65
2018-12-29T00:02:40.521Z,3.62
2018-12-29T00:03:40.480Z,3.60
2018-12-29T00:04:40.459Z,3.69
2018-12-29T00:05:40.430Z,3.68
2018-12-29T00:06:40.406Z,3.69
2018-12-29T00:07:40.378Z,3.65
2018-12-29T00:08:40.367Z,3.61
2018-12-29T00:09:40.325Z,3.73
2018-12-29T00:10:40.309Z,3.65
2018-12-29T00:11:40.275Z,3.66
2018-12-29T00:12:40.253Z,3.62
2018-12-29T00:13:40.223Z,3.61
2018-12-29T00:14:40.202Z,3.61
2018-12-29T00:15:40.174Z,3.65
2018-12-29T00:16:40.147Z,3.62
2018-12-29T00:17:40.120Z,3.66
2018-12-29T00:18:40.097Z,3.73
2018-12-29T00:19:40.070Z,3.69
2018-12-29T00:20:40.042Z,3.68
2018-12-29T00:21:40.096Z,3.68
2018-12-29T00:22:39.993Z,3.68
2018-12-29T00:23:39.972Z,3.73
2018-12-29T00:24:39.942Z,3.73
2018-12-29T00:25:39.920Z,3.72
2018-12-29T00:26:39.892Z,3.62
2018-12-29T00:27:39.876Z,3.72
2018-12-29T00:28:39.836Z,3.69
2018-12-29T00:29:39.813Z,3.73
2018-12-29T00:30:39.790Z,3.76
2018-12-29T00:31:39.766Z,3.76
2018-12-29T00:32:39.738Z,3.75
2018-12-29T00:33:39.728Z,3.75
2018-12-29T00:34:39.685Z,3.75
2018-12-29T00:35:39.671Z,3.73
2018-12-29T00:36:39.630Z,3.72
2018-12-29T00:37:39.605Z,3.76
2018-12-29T00:38:39.582Z,3.73
2018-12-29T00:39:39.566Z,3.68
2018-12-29T00:40:39.532Z,3.70
2018-12-29T00:41:39.511Z,3.70
2018-12-29T00:42:39.478Z,3.78
2018-12-29T00:43:39.454Z,3.73
2018-12-29T00:44:39.429Z,3.73
2018-12-29T00:45:39.408Z,3.75
2018-12-29T00:46:39.380Z,3.79
2018-12-29T00:47:39.356Z,3.73
2018-12-29T00:48:39.329Z,3.75
2018-12-29T00:49:39.299Z,3.76
2018-12-29T00:50:39.279Z,3.76
2018-12-29T00:51:39.354Z,3.72
2018-12-29T00:52:39.222Z,3.76
2018-12-29T00:53:39.205Z,3.70
2018-12-29T00:54:39.167Z,3.75
2018-12-29T00:55:39.141Z,3.68
2018-12-29T00:56:39.117Z,3.76
2018-12-29T00:57:39.099Z,3.79
2018-12-29T00:58:39.065Z,3.72
2018-12-29T00:59:39.040Z,3.70
2018-12-29T01:00:39.018Z,3.73
2018-12-29T01:01:38.989Z,3.75
2018-12-29T01:02:38.967Z,3.79
2018-12-29T01:03:38.937Z,3.76
2018-12-29T01:04:38.912Z,3.79
2018-12-29T01:05:38.885Z,3.75
2018-12-29T01:06:38.861Z,3.76
2018-12-29T01:07:38.834Z,3.78
2018-12-29T01:08:38.808Z,3.76
2018-12-29T01:09:38.779Z,3.80
2018-12-29T01:10:38.758Z,3.76
2018-12-29T01:11:38.731Z,3.75
2018-12-29T01:12:38.711Z,3.72
2018-12-29T01:13:38.677Z,3.80
2018-12-29T01:14:38.660Z,3.80
2018-12-29T01:15:38.633Z,3.79
2018-12-29T01:16:38.601Z,3.83
2018-12-29T01:17:38.575Z,3.86
2018-12-29T01:18:38.550Z,3.76
2018-12-29T01:19:38.536Z,3.83
2018-12-29T01:20:38.497Z,3.84
2018-12-29T01:21:38.474Z,3.72
2018-12-29T01:22:38.453Z,3.79
2018-12-29T01:23:38.423Z,3.76
2018-12-29T01:24:38.403Z,3.86
2018-12-29T01:25:38.369Z,3.86
2018-12-29T01:26:38.344Z,3.79
2018-12-29T01:27:38.318Z,3.93
2018-12-29T01:28:38.292Z,3.80
2018-12-29T01:29:38.266Z,3.87
2018-12-29T01:30:38.239Z,3.97
2018-12-29T01:31:38.216Z,3.84
2018-12-29T01:32:38.187Z,3.90
2018-12-29T01:33:38.166Z,3.90
2018-12-29T01:34:38.145Z,3.80
2018-12-29T01:35:38.126Z,3.80
2018-12-29T01:36:38.085Z,3.88
2018-12-29T01:37:38.065Z,3.97
2018-12-29T01:38:38.035Z,3.87
2018-12-29T01:39:38.009Z,3.97
2018-12-29T01:40:37.988Z,3.87
2018-12-29T01:41:37.956Z,3.88
2018-12-29T01:42:37.932Z,4.00
2018-12-29T01:43:37.917Z,3.93
2018-12-29T01:44:37.885Z,3.84
2018-12-29T01:45:37.859Z,3.83
2018-12-29T01:46:37.830Z,3.96
2018-12-29T01:47:37.803Z,3.91
2018-12-29T01:48:37.780Z,3.94
2018-12-29T01:49:37.750Z,3.87
2018-12-29T01:50:37.726Z,3.91
2018-12-29T01:51:37.704Z,3.90
2018-12-29T01:52:37.675Z,3.96
2018-12-29T01:53:37.659Z,3.88
2018-12-29T01:54:37.628Z,3.98
2018-12-29T01:55:37.600Z,3.97
2018-12-29T01:56:37.571Z,3.86
2018-12-29T01:57:37.548Z,3.87
2018-12-29T01:58:37.524Z,3.90
2018-12-29T01:59:37.494Z,3.91
2018-12-29T02:00:37.468Z,3.88
2018-12-29T02:01:37.443Z,3.93
2018-12-29T02:02:37.417Z,3.96
2018-12-29T02:03:37.399Z,3.96
2018-12-29T02:04:37.369Z,3.91
2018-12-29T02:05:37.338Z,3.91
2018-12-29T02:06:37.316Z,3.97
2018-12-29T02:07:37.291Z,3.97
2018-12-29T02:08:37.266Z,3.97
2018-12-29T02:09:37.236Z,3.90
2018-12-29T02:10:37.219Z,3.93
2018-12-29T02:11:37.188Z,3.97
2018-12-29T02:12:37.160Z,3.98
2018-12-29T02:13:37.166Z,3.97
2018-12-29T02:14:37.111Z,3.93
2018-12-29T02:15:37.087Z,3.90
2018-12-29T02:16:37.058Z,3.86
2018-12-29T02:17:37.042Z,4.02
2018-12-29T02:18:37.016Z,3.88
2018-12-29T02:19:36.985Z,3.94
2018-12-29T02:20:36.957Z,3.93
2018-12-29T02:21:36.932Z,3.94
2018-12-29T02:22:36.910Z,3.98
2018-12-29T02:23:36.879Z,3.98
2018-12-29T02:24:36.862Z,3.94
2018-12-29T02:25:36.831Z,4.00
2018-12-29T02:26:36.803Z,3.98
2018-12-29T02:27:36.780Z,3.94
2018-12-29T02:28:36.758Z,3.97
2018-12-29T02:29:36.724Z,4.00
2018-12-29T02:30:36.699Z,4.00
2018-12-29T02:31:36.673Z,4.00
2018-12-29T02:32:36.650Z,4.00
2018-12-29T02:33:36.634Z,4.04
2018-12-29T02:34:36.602Z,3.88
2018-12-29T02:35:36.573Z,3.98
2018-12-29T02:36:36.546Z,3.94
2018-12-29T02:37:36.532Z,3.96
2018-12-29T02:38:36.493Z,3.98
2018-12-29T02:39:36.469Z,4.04
2018-12-29T02:40:36.452Z,4.04
2018-12-29T02:41:36.417Z,4.04
2018-12-29T02:42:36.391Z,4.04
2018-12-29T02:43:36.377Z,4.06
2018-12-29T02:44:36.339Z,4.06
2018-12-29T02:45:36.314Z,4.02
2018-12-29T02:46:36.286Z,4.00
2018-12-29T02:47:36.264Z,4.04
2018-12-29T02:48:36.236Z,4.04
2018-12-29T02:49:36.210Z,3.98
2018-12-29T02:50:36.186Z,4.02
2018-12-29T02:51:36.160Z,3.94
2018-12-29T02:52:36.147Z,4.04
2018-12-29T02:53:36.108Z,4.08
2018-12-29T02:54:36.085Z,3.98
2018-12-29T02:55:36.059Z,4.04
2018-12-29T02:56:36.032Z,4.09
2018-12-29T02:57:36.007Z,4.08
2018-12-29T02:58:35.988Z,4.05
2018-12-29T02:59:35.964Z,4.09
2018-12-29T03:00:35.947Z,4.02
2018-12-29T03:01:35.912Z,4.00
2018-12-29T03:02:35.878Z,4.04
2018-12-29T03:03:35.860Z,3.98
2018-12-29T03:04:35.831Z,4.02
2018-12-29T03:05:35.800Z,4.05
2018-12-29T03:06:35.781Z,4.00
2018-12-29T03:07:35.752Z,4.04
2018-12-29T03:08:35.724Z,4.00
2018-12-29T03:09:35.702Z,4.05
2018-12-29T03:10:35.673Z,4.02
2018-12-29T03:11:35.654Z,4.06
2018-12-29T03:12:35.630Z,4.08
2018-12-29T03:13:35.595Z,4.02
2018-12-29T03:14:35.632Z,4.02
2018-12-29T03:15:41.148Z,4.02
2018-12-29T03:16:35.521Z,4.00
2018-12-29T03:17:35.494Z,4.09
2018-12-29T03:18:35.471Z,4.04
2018-12-29T03:19:35.446Z,4.08
2018-12-29T03:20:35.426Z,4.05
2018-12-29T03:21:35.391Z,4.02
2018-12-29T03:22:35.366Z,4.06
2018-12-29T03:23:35.345Z,4.06
2018-12-29T03:24:35.318Z,4.06
2018-12-29T03:25:35.289Z,4.05
2018-12-29T03:26:35.280Z,4.11
2018-12-29T03:27:35.238Z,4.05
2018-12-29T03:28:35.219Z,4.05
2018-12-29T03:29:35.188Z,4.06
2018-12-29T03:30:35.173Z,4.04
2018-12-29T03:31:35.137Z,4.08
2018-12-29T03:32:35.110Z,4.02
2018-12-29T03:33:35.089Z,4.00
2018-12-29T03:34:35.057Z,4.04
2018-12-29T03:35:35.042Z,4.02
2018-12-29T03:36:35.007Z,4.05
2018-12-29T03:37:34.981Z,4.05
2018-12-29T03:38:34.958Z,4.11
2018-12-29T03:39:34.930Z,4.04
2018-12-29T03:40:34.904Z,4.02
2018-12-29T03:41:34.882Z,4.04
2018-12-29T03:42:34.960Z,4.00
2018-12-29T03:43:34.832Z,4.05
2018-12-29T03:44:34.803Z,4.00
2018-12-29T03:45:34.777Z,4.06
2018-12-29T03:46:34.756Z,4.05
2018-12-29T03:47:34.726Z,4.05
2018-12-29T03:48:34.700Z,4.09
2018-12-29T03:49:34.676Z,4.05
2018-12-29T03:50:34.657Z,4.06
2018-12-29T03:51:34.623Z,4.00
2018-12-29T03:52:34.600Z,4.05
2018-12-29T03:53:34.572Z,4.06
2018-12-29T03:54:34.549Z,4.06
2018-12-29T03:55:34.524Z,4.04
2018-12-29T03:56:34.502Z,4.06
2018-12-29T03:57:34.470Z,4.05
2018-12-29T03:58:34.448Z,4.06
2018-12-29T03:59:34.421Z,4.08
2018-12-29T04:00:34.397Z,4.06
2018-12-29T04:01:34.366Z,4.04
2018-12-29T04:02:34.343Z,4.02
2018-12-29T04:03:34.318Z,4.15
2018-12-29T04:04:34.288Z,4.02
2018-12-29T04:05:34.264Z,4.09
2018-12-29T04:06:34.239Z,4.08
2018-12-29T04:07:34.221Z,4.11
2018-12-29T04:08:34.188Z,4.04
2018-12-29T04:09:34.161Z,4.00
2018-12-29T04:10:34.137Z,4.09
2018-12-29T04:11:34.110Z,4.06
2018-12-29T04:12:34.085Z,4.00
2018-12-29T04:13:34.060Z,4.08
2018-12-29T04:14:34.041Z,4.04
2018-12-29T04:15:34.009Z,4.00
2018-12-29T04:16:33.981Z,4.14
2018-12-29T04:17:33.961Z,4.02
2018-12-29T04:18:33.932Z,4.02
2018-12-29T04:19:33.903Z,4.04
2018-12-29T04:20:33.877Z,4.15
2018-12-29T04:21:33.859Z,4.00
2018-12-29T04:22:33.836Z,4.12
2018-12-29T04:23:33.804Z,4.08
2018-12-29T04:24:33.776Z,4.02
2018-12-29T04:25:33.758Z,4.06
2018-12-29T04:26:33.724Z,4.06
2018-12-29T04:27:33.699Z,4.04
2018-12-29T04:28:33.673Z,4.08
2018-12-29T04:29:33.647Z,4.11
2018-12-29T04:30:33.620Z,4.04
2018-12-29T04:31:33.596Z,4.04
2018-12-29T04:32:33.571Z,4.04
2018-12-29T04:33:33.545Z,4.14
2018-12-29T04:34:33.520Z,4.06
2018-12-29T04:35:33.493Z,4.04
2018-12-29T04:36:33.470Z,4.08
2018-12-29T04:37:33.456Z,4.04
2018-12-29T04:38:33.417Z,4.00
2018-12-29T04:39:33.394Z,4.05
2018-12-29T04:40:33.367Z,4.08
2018-12-29T04:41:33.346Z,4.05
2018-12-29T04:42:33.315Z,4.00
2018-12-29T04:43:33.292Z,4.11
2018-12-29T04:44:33.262Z,4.12
2018-12-29T04:45:33.237Z,4.16
2018-12-29T04:46:33.211Z,4.11
2018-12-29T04:47:33.186Z,4.05
2018-12-29T04:48:33.157Z,4.05
2018-12-29T04:49:33.133Z,4.09
2018-12-29T04:50:33.105Z,4.04
2018-12-29T04:51:33.083Z,4.06
2018-12-29T04:52:33.057Z,4.00
2018-12-29T04:53:33.032Z,4.08
2018-12-29T04:54:33.005Z,4.05
2018-12-29T04:55:32.979Z,4.15
2018-12-29T04:56:32.952Z,4.14
2018-12-29T04:57:32.928Z,4.12
2018-12-29T04:58:32.902Z,4.06
2018-12-29T04:59:32.877Z,4.05
2018-12-29T05:00:32.848Z,4.00
2018-12-29T05:01:32.831Z,4.04
2018-12-29T05:02:32.809Z,4.08
2018-12-29T05:03:32.773Z,4.09
2018-12-29T05:04:32.748Z,4.06
2018-12-29T05:05:32.731Z,4.05
2018-12-29T05:06:32.698Z,4.09
2018-12-29T05:07:32.675Z,3.98
2018-12-29T05:08:32.644Z,4.00
2018-12-29T05:09:32.621Z,4.09
2018-12-29T05:10:32.592Z,4.20
2018-12-29T05:11:32.569Z,4.06
2018-12-29T05:12:32.543Z,4.08
2018-12-29T05:13:32.518Z,4.14
2018-12-29T05:14:32.491Z,4.06
2018-12-29T05:15:32.466Z,4.08
2018-12-29T05:16:32.441Z,4.11
2018-12-29T05:17:32.418Z,4.12
2018-12-29T05:18:32.392Z,4.16
2018-12-29T05:19:32.366Z,4.16
2018-12-29T05:20:32.338Z,4.05
2018-12-29T05:21:32.312Z,4.12
2018-12-29T05:22:32.287Z,4.11
2018-12-29T05:23:32.261Z,4.12
2018-12-29T05:24:32.235Z,4.11
2018-12-29T05:25:32.210Z,4.08
2018-12-29T05:26:32.185Z,4.11
2018-12-29T05:27:32.159Z,4.11
2018-12-29T05:28:32.132Z,4.14
2018-12-29T05:29:32.110Z,4.12
2018-12-29T05:30:32.086Z,4.11
2018-12-29T05:31:32.055Z,4.15
2018-12-29T05:32:32.029Z,4.23
2018-12-29T05:33:32.004Z,4.11
2018-12-29T05:34:31.978Z,4.14
2018-12-29T05:35:31.953Z,4.18
2018-12-29T05:36:31.930Z,4.12
2018-12-29T05:37:31.900Z,4.15
2018-12-29T05:38:31.875Z,4.12
2018-12-29T05:39:31.849Z,4.20
2018-12-29T05:40:31.828Z,4.22
2018-12-29T05:41:31.803Z,4.16
2018-12-29T05:42:31.776Z,4.16
2018-12-29T05:43:31.748Z,4.15
2018-12-29T05:44:31.722Z,4.18
2018-12-29T05:45:31.697Z,4.23
2018-12-29T05:46:31.674Z,4.18
2018-12-29T05:47:31.648Z,4.24
2018-12-29T05:48:31.620Z,4.18
2018-12-29T05:49:31.595Z,4.16
2018-12-29T05:50:31.568Z,4.26
2018-12-29T05:51:31.544Z,4.15
2018-12-29T05:52:31.517Z,4.33
2018-12-29T05:53:31.493Z,4.24
2018-12-29T05:54:31.475Z,4.26
2018-12-29T05:55:31.440Z,4.16
2018-12-29T05:56:31.416Z,4.20
2018-12-29T05:57:31.391Z,4.22
2018-12-29T05:58:31.365Z,4.24
2018-12-29T05:59:31.341Z,4.18
2018-12-29T06:00:31.312Z,4.26
2018-12-29T06:01:31.294Z,4.32
2018-12-29T06:02:31.265Z,4.24
2018-12-29T06:03:31.237Z,4.24
2018-12-29T06:04:31.216Z,4.16
2018-12-29T06:05:31.186Z,4.27
2018-12-29T06:06:31.161Z,4.29
2018-12-29T06:07:31.133Z,4.32
2018-12-29T06:08:31.114Z,4.23
2018-12-29T06:09:31.082Z,4.26
2018-12-29T06:10:31.058Z,4.22
2018-12-29T06:11:31.032Z,4.24
2018-12-29T06:12:31.012Z,4.24
2018-12-29T06:13:30.979Z,4.26
2018-12-29T06:14:30.954Z,4.14
2018-12-29T06:15:30.932Z,4.30
2018-12-29T06:16:30.904Z,4.29
2018-12-29T06:17:30.881Z,4.24
2018-12-29T06:18:30.853Z,4.23
2018-12-29T06:19:30.828Z,4.27
2018-12-29T06:20:30.800Z,4.26
2018-12-29T06:21:30.775Z,4.29
2018-12-29T06:22:30.750Z,4.29
2018-12-29T06:23:30.725Z,4.27
2018-12-29T06:24:30.697Z,4.27
2018-12-29T06:25:30.673Z,4.24
2018-12-29T06:26:30.647Z,4.34
2018-12-29T06:27:30.622Z,4.26
2018-12-29T06:28:30.595Z,4.29
2018-12-29T06:29:30.570Z,4.29
2018-12-29T06:30:30.544Z,4.24
2018-12-29T06:31:30.520Z,4.37
2018-12-29T06:32:30.493Z,4.29
2018-12-29T06:33:30.468Z,4.36
2018-12-29T06:34:30.441Z,4.27
2018-12-29T06:35:30.419Z,4.30
2018-12-29T06:36:30.391Z,4.34
2018-12-29T06:37:30.364Z,4.30
2018-12-29T06:38:30.338Z,4.27
2018-12-29T06:39:30.315Z,4.26
2018-12-29T06:40:30.289Z,4.29
2018-12-29T06:41:30.263Z,4.27
2018-12-29T06:42:30.240Z,4.30
2018-12-29T06:43:30.212Z,4.27
2018-12-29T06:44:30.193Z,4.36
2018-12-29T06:45:30.161Z,4.30
2018-12-29T06:46:34.955Z,4.30
2018-12-29T06:47:30.112Z,4.37
2018-12-29T06:48:30.088Z,4.34
2018-12-29T06:49:30.059Z,4.30
2018-12-29T06:50:30.032Z,4.29
2018-12-29T06:51:30.007Z,4.32
2018-12-29T06:52:29.982Z,4.33
2018-12-29T06:53:29.955Z,4.32
2018-12-29T06:54:29.933Z,4.32
2018-12-29T06:55:29.910Z,4.32
2018-12-29T06:56:29.881Z,4.32
2018-12-29T06:57:29.855Z,4.32
2018-12-29T06:58:29.830Z,4.32
2018-12-29T06:59:29.813Z,4.32
2018-12-29T07:00:29.778Z,4.33
2018-12-29T07:01:29.753Z,4.32
2018-12-29T07:02:29.729Z,4.36
2018-12-29T07:03:29.703Z,4.40
2018-12-29T07:04:29.678Z,4.32
2018-12-29T07:05:29.651Z,4.29
2018-12-29T07:06:29.628Z,4.33
2018-12-29T07:07:29.603Z,4.37
2018-12-29T07:08:29.575Z,4.37
2018-12-29T07:09:29.549Z,4.37
2018-12-29T07:10:29.524Z,4.45
2018-12-29T07:11:29.501Z,4.44
2018-12-29T07:12:29.473Z,4.45
2018-12-29T07:13:29.448Z,4.42
2018-12-29T07:14:29.421Z,4.44
2018-12-29T07:15:29.396Z,4.44
2018-12-29T07:16:29.371Z,4.47
2018-12-29T07:17:29.361Z,4.44
2018-12-29T07:18:29.321Z,4.45
2018-12-29T07:19:29.294Z,4.50
2018-12-29T07:20:29.268Z,4.48
2018-12-29T07:21:29.246Z,4.42
2018-12-29T07:22:29.220Z,4.42
2018-12-29T07:23:29.201Z,4.48
2018-12-29T07:24:29.179Z,4.55
2018-12-29T07:25:29.144Z,4.41
2018-12-29T07:26:29.115Z,4.48
2018-12-29T07:27:29.092Z,4.51
2018-12-29T07:28:29.063Z,4.51
2018-12-29T07:29:29.039Z,4.47
2018-12-29T07:30:29.021Z,4.47
2018-12-29T07:31:28.993Z,4.50
2018-12-29T07:32:28.963Z,4.54
2018-12-29T07:33:28.937Z,4.55
2018-12-29T07:34:28.911Z,4.48
2018-12-29T07:35:28.885Z,4.50
2018-12-29T07:36:28.865Z,4.47
2018-12-29T07:37:28.837Z,4.50
2018-12-29T07:38:28.810Z,4.44
2018-12-29T07:39:28.787Z,4.54
2018-12-29T07:40:28.759Z,4.51
2018-12-29T07:41:28.734Z,4.52
2018-12-29T07:42:28.714Z,4.51
2018-12-29T07:43:28.683Z,4.65
2018-12-29T07:44:28.658Z,4.58
2018-12-29T07:45:28.632Z,4.44
2018-12-29T07:46:28.610Z,4.55
2018-12-29T07:47:28.593Z,4.62
2018-12-29T07:48:28.556Z,4.72
2018-12-29T07:49:28.535Z,4.67
2018-12-29T07:50:28.507Z,4.69
2018-12-29T07:51:28.480Z,4.67
2018-12-29T07:52:28.458Z,4.70
2018-12-29T07:53:28.426Z,4.55
2018-12-29T07:54:28.402Z,4.60
2018-12-29T07:55:28.381Z,4.70
2018-12-29T07:56:28.350Z,4.63
2018-12-29T07:57:28.326Z,4.63
2018-12-29T07:58:28.299Z,4.55
2018-12-29T07:59:28.284Z,4.58
2018-12-29T08:00:28.253Z,4.59
2018-12-29T08:01:28.223Z,4.63
2018-12-29T08:02:28.198Z,4.67
2018-12-29T08:03:28.173Z,4.60
2018-12-29T08:04:28.150Z,4.60
2018-12-29T08:05:28.128Z,4.60
2018-12-29T08:06:28.098Z,4.60
2018-12-29T08:07:28.075Z,4.63
2018-12-29T08:08:28.052Z,4.63
2018-12-29T08:09:28.023Z,4.62
2018-12-29T08:10:28.005Z,4.66
2018-12-29T08:11:27.972Z,4.63
2018-12-29T08:12:27.947Z,4.66
2018-12-29T08:13:27.919Z,4.72
2018-12-29T08:14:27.899Z,4.73
2018-12-29T08:15:27.872Z,4.77
2018-12-29T08:16:27.846Z,4.70
2018-12-29T08:17:27.818Z,4.73
2018-12-29T08:18:27.793Z,4.73
2018-12-29T08:19:27.839Z,4.78
2018-12-29T08:20:27.741Z,4.75
2018-12-29T08:21:27.737Z,4.70
2018-12-29T08:22:27.691Z,4.65
2018-12-29T08:23:27.668Z,4.72
2018-12-29T08:24:27.647Z,4.73
2018-12-29T08:25:27.616Z,4.73
2018-12-29T08:26:27.590Z,4.80
2018-12-29T08:27:27.586Z,4.73
2018-12-29T08:28:27.546Z,4.66
2018-12-29T08:29:27.519Z,4.82
2018-12-29T08:30:27.488Z,4.82
2018-12-29T08:31:27.468Z,4.86
2018-12-29T08:32:27.437Z,4.82
2018-12-29T08:33:27.412Z,4.80
2018-12-29T08:34:27.395Z,4.78
2018-12-29T08:35:27.366Z,4.85
2018-12-29T08:36:27.337Z,4.82
2018-12-29T08:37:27.309Z,4.77
2018-12-29T08:38:27.289Z,4.77
2018-12-29T08:39:27.263Z,4.73
2018-12-29T08:40:27.263Z,4.80
2018-12-29T08:41:27.212Z,4.82
2018-12-29T08:42:27.189Z,4.92
2018-12-29T08:43:27.157Z,4.82
2018-12-29T08:44:27.134Z,4.94
2018-12-29T08:45:27.107Z,4.92
2018-12-29T08:46:27.086Z,4.91
2018-12-29T08:47:27.068Z,4.91
2018-12-29T08:48:27.042Z,4.91
2018-12-29T08:49:27.008Z,4.96
2018-12-29T08:50:26.990Z,4.91
2018-12-29T08:51:26.956Z,4.99
2018-12-29T08:52:26.931Z,4.94
2018-12-29T08:53:26.911Z,5.00
2018-12-29T08:54:26.890Z,4.94
2018-12-29T08:55:26.855Z,4.99
2018-12-29T08:56:26.836Z,4.94
2018-12-29T08:57:26.804Z,5.03
2018-12-29T08:58:26.779Z,5.02
2018-12-29T08:59:26.766Z,4.94
2018-12-29T09:00:26.740Z,5.02
2018-12-29T09:01:26.705Z,5.03
2018-12-29T09:02:26.685Z,5.02
2018-12-29T09:03:26.653Z,5.09
2018-12-29T09:04:26.627Z,5.06
2018-12-29T09:05:26.601Z,5.03
2018-12-29T09:06:26.575Z,5.09
2018-12-29T09:07:26.552Z,5.15
2018-12-29T09:08:26.524Z,5.10
2018-12-29T09:09:26.499Z,5.12
2018-12-29T09:10:26.475Z,5.15
2018-12-29T09:11:26.450Z,5.12
2018-12-29T09:12:26.424Z,5.13
2018-12-29T09:13:26.399Z,5.12
2018-12-29T09:14:26.373Z,5.12
2018-12-29T09:15:26.350Z,5.21
2018-12-29T09:16:26.325Z,5.18
2018-12-29T09:17:26.304Z,5.13
2018-12-29T09:18:26.282Z,5.15
2018-12-29T09:19:27.345Z,5.22
2018-12-29T09:20:26.228Z,5.13
2018-12-29T09:21:26.204Z,5.21
2018-12-29T09:22:26.173Z,5.22
2018-12-29T09:23:26.146Z,5.27
2018-12-29T09:24:26.123Z,5.22
2018-12-29T09:25:26.115Z,5.17
2018-12-29T09:26:26.089Z,5.25
2018-12-29T09:27:26.047Z,5.17
2018-12-29T09:28:26.022Z,5.22
2018-12-29T09:29:25.996Z,5.17
2018-12-29T09:30:25.970Z,5.25
2018-12-29T09:31:25.954Z,5.25
2018-12-29T09:32:25.921Z,5.30
2018-12-29T09:33:25.897Z,5.28
2018-12-29T09:34:25.876Z,5.35
2018-12-29T09:35:25.845Z,5.35
2018-12-29T09:36:25.825Z,5.28
2018-12-29T09:37:25.794Z,5.30
2018-12-29T09:38:25.772Z,5.28
2018-12-29T09:39:25.745Z,5.38
2018-12-29T09:40:25.723Z,5.31
2018-12-29T09:41:25.693Z,5.27
2018-12-29T09:42:25.668Z,5.33
2018-12-29T09:43:25.642Z,5.28
2018-12-29T09:44:25.617Z,5.25
2018-12-29T09:45:25.591Z,5.38
2018-12-29T09:46:25.575Z,5.27
2018-12-29T09:47:25.543Z,5.36
2018-12-29T09:48:25.515Z,5.35
2018-12-29T09:49:25.493Z,5.38
2018-12-29T09:50:25.475Z,5.43
2018-12-29T09:51:25.441Z,5.39
2018-12-29T09:52:25.416Z,5.39
2018-12-29T09:53:25.392Z,5.43
2018-12-29T09:54:25.385Z,5.45
2018-12-29T09:55:25.347Z,5.48
2018-12-29T09:56:25.328Z,5.40
2018-12-29T09:57:25.289Z,5.45
2018-12-29T09:58:25.268Z,5.43
2018-12-29T09:59:25.242Z,5.49
2018-12-29T10:00:25.216Z,5.53
2018-12-29T10:01:25.193Z,5.58
2018-12-29T10:02:25.182Z,5.45
2018-12-29T10:03:25.145Z,5.58
2018-12-29T10:04:25.124Z,5.54
2018-12-29T10:05:25.096Z,5.61
2018-12-29T10:06:25.068Z,5.60
2018-12-29T10:07:25.043Z,5.57
2018-12-29T10:08:25.015Z,5.53
2018-12-29T10:09:24.991Z,5.54
2018-12-29T10:10:24.969Z,5.54
2018-12-29T10:11:24.945Z,5.51
2018-12-29T10:12:24.915Z,5.56
2018-12-29T10:13:24.896Z,5.56
2018-12-29T10:14:24.870Z,5.56
2018-12-29T10:15:24.849Z,5.57
2018-12-29T10:16:24.815Z,5.57
2018-12-29T10:17:26.973Z,5.57
2018-12-29T10:18:24.761Z,5.57
2018-12-29T10:19:24.738Z,5.48
2018-12-29T10:20:24.719Z,5.63
2018-12-29T10:21:24.687Z,5.63
2018-12-29T10:22:24.663Z,5.53
2018-12-29T10:23:24.640Z,5.64
2018-12-29T10:24:24.623Z,5.61
2018-12-29T10:25:24.585Z,5.58
2018-12-29T10:26:24.565Z,5.63
2018-12-29T10:27:24.548Z,5.65
2018-12-29T10:28:24.512Z,5.60
2018-12-29T10:29:24.494Z,5.57
2018-12-29T10:30:24.476Z,5.64
2018-12-29T10:31:24.437Z,5.71
2018-12-29T10:32:24.420Z,5.68
2018-12-29T10:33:24.393Z,5.60
2018-12-29T10:34:24.367Z,5.65
2018-12-29T10:35:24.338Z,5.64
2018-12-29T10:36:24.310Z,5.67
2018-12-29T10:37:24.293Z,5.67
2018-12-29T10:38:24.266Z,5.68
2018-12-29T10:39:24.241Z,5.71
2018-12-29T10:40:24.214Z,5.76
2018-12-29T10:41:24.183Z,5.71
2018-12-29T10:42:24.159Z,5.72
2018-12-29T10:43:24.135Z,5.71
2018-12-29T10:44:24.108Z,5.75
2018-12-29T10:45:24.087Z,5.78
2018-12-29T10:46:24.058Z,5.74
2018-12-29T10:47:24.039Z,5.79
2018-12-29T10:48:24.018Z,5.81
2018-12-29T10:49:23.983Z,5.78
2018-12-29T10:50:23.968Z,5.86
2018-12-29T10:51:23.934Z,5.81
2018-12-29T10:52:23.916Z,5.86
2018-12-29T10:53:23.883Z,5.89
2018-12-29T10:54:23.861Z,5.78
2018-12-29T10:55:23.841Z,5.86
2018-12-29T10:56:23.814Z,5.78
2018-12-29T10:57:23.788Z,5.83
2018-12-29T10:58:23.764Z,5.81
2018-12-29T10:59:23.753Z,5.85
2018-12-29T11:00:23.712Z,5.82
2018-12-29T11:01:23.684Z,5.90
2018-12-29T11:02:23.663Z,5.93
2018-12-29T11:03:23.634Z,5.90
2018-12-29T11:04:23.614Z,5.86
2018-12-29T11:05:23.597Z,5.91
2018-12-29T11:06:23.558Z,5.96
2018-12-29T11:07:23.559Z,5.91
2018-12-29T11:08:23.507Z,5.94
2018-12-29T11:09:23.483Z,5.91
2018-12-29T11:10:23.459Z,5.96
2018-12-29T11:11:23.433Z,5.93
2018-12-29T11:12:23.407Z,5.94
2018-12-29T11:13:23.390Z,5.96
2018-12-29T11:14:23.375Z,5.96
2018-12-29T11:15:23.340Z,5.93
2018-12-29T11:16:23.312Z,5.96
2018-12-29T11:17:23.285Z,5.91
2018-12-29T11:18:23.262Z,5.93
2018-12-29T11:19:23.237Z,6.01
2018-12-29T11:20:23.215Z,6.03
2018-12-29T11:21:23.203Z,6.06
2018-12-29T11:22:23.162Z,5.99
2018-12-29T11:23:23.142Z,6.06
2018-12-29T11:24:23.110Z,6.00
2018-12-29T11:25:23.085Z,6.03
2018-12-29T11:26:23.062Z,5.99
2018-12-29T11:27:23.043Z,6.08
2018-12-29T11:28:23.010Z,5.99
2018-12-29T11:29:22.984Z,6.00
2018-12-29T11:30:22.974Z,6.04
2018-12-29T11:31:22.941Z,6.01
2018-12-29T11:32:22.911Z,6.04
2018-12-29T11:33:22.889Z,6.04
2018-12-29T11:34:22.871Z,6.09
2018-12-29T11:35:28.785Z,6.08
2018-12-29T11:36:22.814Z,6.03
2018-12-29T11:37:22.791Z,6.17
2018-12-29T11:38:22.771Z,6.14
2018-12-29T11:39:22.740Z,6.14
2018-12-29T11:40:22.718Z,6.14
2018-12-29T11:41:24.004Z,6.18
2018-12-29T11:42:22.669Z,6.19
2018-12-29T11:43:22.643Z,6.19
2018-12-29T11:44:22.624Z,6.17
2018-12-29T11:45:22.595Z,6.19
2018-12-29T11:46:22.576Z,6.17
2018-12-29T11:47:22.541Z,6.22
2018-12-29T11:48:22.519Z,6.21
2018-12-29T11:49:22.491Z,6.19
2018-12-29T11:50:22.469Z,6.21
2018-12-29T11:51:22.448Z,6.25
2018-12-29T11:52:22.419Z,6.21
2018-12-29T11:53:22.395Z,6.31
2018-12-29T11:54:22.373Z,6.17
2018-12-29T11:55:22.347Z,6.17
2018-12-29T11:56:22.322Z,6.21
2018-12-29T11:57:22.294Z,6.33
2018-12-29T11:58:22.266Z,6.33
2018-12-29T11:59:22.246Z,6.34
2018-12-29T12:00:22.217Z,6.30
2018-12-29T12:01:22.196Z,6.37
2018-12-29T12:02:24.564Z,6.33
2018-12-29T12:03:22.152Z,6.30
2018-12-29T12:04:22.127Z,6.31
2018-12-29T12:05:22.100Z,6.31
2018-12-29T12:06:22.071Z,6.34
2018-12-29T12:07:22.047Z,6.28
2018-12-29T12:08:22.027Z,6.30
2018-12-29T12:09:21.996Z,6.34
2018-12-29T12:10:21.979Z,6.30
2018-12-29T12:11:21.948Z,6.33
2018-12-29T12:12:21.922Z,6.34
2018-12-29T12:13:21.904Z,6.36
2018-12-29T12:14:21.873Z,6.34
2018-12-29T12:15:21.860Z,6.33
2018-12-29T12:16:21.822Z,6.40
2018-12-29T12:17:21.802Z,6.28
2018-12-29T12:18:21.792Z,6.31
2018-12-29T12:19:21.755Z,6.34
2018-12-29T12:20:21.736Z,6.34
2018-12-29T12:21:21.700Z,6.36
2018-12-29T12:22:21.678Z,6.41
2018-12-29T12:23:21.703Z,6.44
2018-12-29T12:24:21.640Z,6.37
2018-12-29T12:25:21.600Z,6.40
2018-12-29T12:26:21.577Z,6.40
2018-12-29T12:27:21.554Z,6.49
2018-12-29T12:28:21.529Z,6.43
2018-12-29T12:29:21.505Z,6.44
2018-12-29T12:30:21.479Z,6.48
2018-12-29T12:31:21.454Z,6.43
2018-12-29T12:32:21.439Z,6.46
2018-12-29T12:33:21.418Z,6.44
2018-12-29T12:34:21.379Z,6.59
2018-12-29T12:35:21.359Z,6.46
2018-12-29T12:36:21.335Z,6.52
2018-12-29T12:37:21.307Z,6.51
2018-12-29T12:38:21.288Z,6.58
2018-12-29T12:39:21.257Z,6.54
2018-12-29T12:40:21.231Z,6.62
2018-12-29T12:41:21.214Z,6.56
2018-12-29T12:42:21.191Z,6.66
2018-12-29T12:43:21.161Z,6.61
2018-12-29T12:44:21.135Z,6.62
2018-12-29T12:45:21.111Z,6.58
2018-12-29T12:46:21.085Z,6.61
2018-12-29T12:47:21.069Z,6.67
2018-12-29T12:48:21.034Z,6.61
2018-12-29T12:49:21.012Z,6.58
2018-12-29T12:50:20.986Z,6.55
2018-12-29T12:51:20.966Z,6.64
2018-12-29T12:52:20.937Z,6.55
2018-12-29T12:53:20.915Z,6.54
2018-12-29T12:54:20.893Z,6.59
2018-12-29T12:55:20.882Z,6.61
2018-12-29T12:56:20.846Z,6.70
2018-12-29T12:57:20.812Z,6.62
2018-12-29T12:58:20.789Z,6.64
2018-12-29T12:59:20.783Z,6.66
2018-12-29T13:00:20.740Z,6.62
2018-12-29T13:01:20.724Z,6.66
2018-12-29T13:02:20.698Z,6.62
2018-12-29T13:03:20.674Z,6.66
2018-12-29T13:04:20.640Z,6.71
2018-12-29T13:05:20.634Z,6.67
2018-12-29T13:06:20.592Z,6.67
2018-12-29T13:07:20.574Z,6.61
2018-12-29T13:08:20.542Z,6.69
2018-12-29T13:09:20.526Z,6.73
2018-12-29T13:10:20.496Z,6.64
2018-12-29T13:11:20.478Z,6.70
2018-12-29T13:12:20.444Z,6.64
2018-12-29T13:13:20.420Z,6.62
2018-12-29T13:14:20.400Z,6.66
2018-12-29T13:15:21.780Z,6.71
2018-12-29T13:16:20.353Z,6.67
2018-12-29T13:17:20.324Z,6.62
2018-12-29T13:18:20.314Z,6.62